Thompsons Lake, New York
Current Conditions -  °F | °C
As of 8:51 AM on Saturday 25 Oct 2014 (Local Time) from KALB Reporting Station
Scattered Clouds Scattered Clouds  
Wind Chill: 47°   Ceiling: Unl
Heat Index: 49°   Visibility: 10mi
Dew Point: 42°   Wind: 5mph
Humidity: 77%   Direction: 230°SW
Pressure: 29.83"   Gusts: NA
Location:  42.709°N, 74.0262°W
Report Text: KALB 251251Z 23004KT 10SM SCT022 SCT250 09/06 A2983 RMK AO2 SLP104 T00940056 $
Loading
Personal Weather Stations






























Interactive Weather Map
Tropical Storm Tracking
New forecast layout! Learn more

10-Day Weather Forecast

Advertisements
Track Severe Weather on mobile